createdAt,value
2022-11-04T00:00:54.650Z,12.22
2022-11-04T00:01:54.641Z,12.07
2022-11-04T00:02:54.579Z,12.08
2022-11-04T00:03:54.556Z,12.00
2022-11-04T00:04:54.590Z,11.98
2022-11-04T00:05:56.520Z,11.77
2022-11-04T00:06:54.506Z,11.75
2022-11-04T00:07:54.510Z,11.64
2022-11-04T00:08:54.488Z,11.59
2022-11-04T00:09:54.505Z,11.53
2022-11-04T00:10:54.480Z,11.42
2022-11-04T00:11:54.456Z,11.44
2022-11-04T00:12:54.456Z,11.44
2022-11-04T00:13:54.442Z,11.38
2022-11-04T00:14:54.472Z,11.39
2022-11-04T00:15:54.429Z,11.35
2022-11-04T00:16:54.401Z,11.36
2022-11-04T00:17:54.996Z,11.36
2022-11-04T00:19:01.003Z,11.30
2022-11-04T00:19:54.387Z,11.35
2022-11-04T00:20:55.021Z,11.28
2022-11-04T00:21:54.347Z,11.28
2022-11-04T00:22:54.360Z,11.19
2022-11-04T00:23:54.329Z,11.26
2022-11-04T00:24:54.321Z,11.30
2022-11-04T00:25:54.319Z,11.31
2022-11-04T00:26:54.352Z,11.26
2022-11-04T00:27:54.997Z,11.19
2022-11-04T00:28:54.274Z,11.21
2022-11-04T00:29:54.253Z,11.21
2022-11-04T00:30:54.287Z,11.21
2022-11-04T00:31:54.244Z,11.13
2022-11-04T00:32:55.006Z,11.16
2022-11-04T00:33:54.218Z,11.23
2022-11-04T00:34:54.230Z,11.20
2022-11-04T00:35:54.188Z,11.20
2022-11-04T00:36:54.230Z,11.16
2022-11-04T00:37:54.172Z,11.09
2022-11-04T00:38:55.021Z,11.12
2022-11-04T00:39:54.152Z,11.09
2022-11-04T00:40:54.133Z,11.06
2022-11-04T00:41:54.130Z,11.13
2022-11-04T00:42:54.134Z,11.12
2022-11-04T00:43:54.110Z,11.12
2022-11-04T00:44:54.113Z,11.09
2022-11-04T00:45:54.086Z,11.09
2022-11-04T00:46:54.067Z,11.05
2022-11-04T00:47:54.067Z,11.16
2022-11-04T00:48:54.048Z,11.08
2022-11-04T00:49:55.027Z,11.05
2022-11-04T00:50:54.032Z,10.98
2022-11-04T00:51:54.020Z,11.03
2022-11-04T00:52:54.030Z,10.99
2022-11-04T00:53:53.998Z,10.95
2022-11-04T00:54:54.010Z,11.12
2022-11-04T00:55:53.973Z,11.06
2022-11-04T00:56:53.983Z,11.06
2022-11-04T00:57:53.956Z,11.02
2022-11-04T00:58:53.937Z,11.02
2022-11-04T00:59:56.007Z,11.05
2022-11-04T01:00:53.970Z,11.05
2022-11-04T01:01:54.031Z,11.05
2022-11-04T01:02:53.888Z,11.01
2022-11-04T01:03:53.888Z,11.08
2022-11-04T01:04:53.870Z,10.99
2022-11-04T01:05:53.883Z,10.90
2022-11-04T01:06:53.847Z,10.95
2022-11-04T01:07:54.511Z,10.90
2022-11-04T01:08:53.833Z,10.87
2022-11-04T01:09:53.831Z,10.91
2022-11-04T01:10:53.824Z,10.87
2022-11-04T01:11:53.818Z,10.83
2022-11-04T01:12:53.780Z,10.80
2022-11-04T01:13:56.519Z,10.81
2022-11-04T01:14:53.753Z,10.83
2022-11-04T01:15:53.756Z,10.76
2022-11-04T01:16:53.752Z,10.70
2022-11-04T01:17:53.725Z,10.78
2022-11-04T01:18:57.574Z,10.69
2022-11-04T01:19:53.698Z,10.73
2022-11-04T01:20:53.694Z,10.76
2022-11-04T01:21:54.033Z,10.73
2022-11-04T01:22:53.674Z,10.73
2022-11-04T01:23:53.677Z,10.73
2022-11-04T01:24:53.659Z,10.81
2022-11-04T01:25:53.679Z,10.80
2022-11-04T01:26:53.619Z,10.68
2022-11-04T01:27:53.648Z,10.78
2022-11-04T01:28:53.597Z,10.72
2022-11-04T01:29:53.599Z,10.75
2022-11-04T01:30:53.588Z,10.70
2022-11-04T01:31:53.567Z,10.69
2022-11-04T01:32:53.554Z,10.69
2022-11-04T01:33:53.571Z,10.72
2022-11-04T01:34:53.529Z,10.76
2022-11-04T01:35:53.548Z,10.66
2022-11-04T01:36:53.504Z,10.66
2022-11-04T01:37:53.525Z,10.73
2022-11-04T01:38:53.996Z,10.78
2022-11-04T01:39:53.521Z,10.69
2022-11-04T01:40:53.519Z,10.76
2022-11-04T01:41:53.531Z,10.68
2022-11-04T01:42:53.434Z,10.72
2022-11-04T01:43:53.442Z,10.66
2022-11-04T01:44:53.424Z,10.76
2022-11-04T01:45:53.544Z,10.68
2022-11-04T01:46:53.397Z,10.65
2022-11-04T01:47:54.409Z,10.65
2022-11-04T01:48:53.395Z,10.66
2022-11-04T01:49:53.378Z,10.65
2022-11-04T01:50:53.396Z,10.60
2022-11-04T01:51:54.411Z,10.66
2022-11-04T01:52:53.996Z,10.63
2022-11-04T01:53:53.336Z,10.58
2022-11-04T01:54:53.304Z,10.58
2022-11-04T01:56:01.075Z,10.55
2022-11-04T01:56:53.307Z,10.52
2022-11-04T01:57:53.279Z,10.57
2022-11-04T01:58:53.269Z,10.55
2022-11-04T01:59:53.255Z,10.57
2022-11-04T02:00:53.303Z,10.60
2022-11-04T02:01:54.147Z,10.54
2022-11-04T02:02:53.240Z,10.51
2022-11-04T02:03:54.014Z,10.54
2022-11-04T02:04:53.201Z,10.54
2022-11-04T02:05:53.186Z,10.51
2022-11-04T02:06:53.204Z,10.49
2022-11-04T02:07:53.166Z,10.57
2022-11-04T02:08:53.159Z,10.54
2022-11-04T02:09:53.140Z,10.51
2022-11-04T02:10:53.148Z,10.57
2022-11-04T02:11:53.137Z,10.60
2022-11-04T02:12:53.107Z,10.58
2022-11-04T02:13:53.122Z,10.63
2022-11-04T02:14:53.103Z,10.65
2022-11-04T02:15:53.078Z,10.60
2022-11-04T02:16:53.069Z,10.69
2022-11-04T02:17:53.053Z,10.63
2022-11-04T02:18:53.043Z,10.66
2022-11-04T02:19:54.030Z,10.66
2022-11-04T02:20:53.024Z,10.65
2022-11-04T02:21:53.010Z,10.75
2022-11-04T02:22:53.000Z,10.73
2022-11-04T02:23:53.020Z,10.80
2022-11-04T02:24:52.985Z,10.73
2022-11-04T02:25:52.966Z,10.78
2022-11-04T02:26:52.968Z,10.81
2022-11-04T02:27:52.956Z,10.81
2022-11-04T02:28:52.942Z,10.80
2022-11-04T02:29:52.935Z,10.81
2022-11-04T02:30:52.940Z,10.83
2022-11-04T02:31:52.889Z,10.80
2022-11-04T02:32:52.910Z,10.90
2022-11-04T02:33:52.876Z,10.80
2022-11-04T02:34:52.887Z,10.86
2022-11-04T02:35:52.855Z,10.90
2022-11-04T02:36:52.844Z,10.86
2022-11-04T02:38:52.819Z,10.70
2022-11-04T02:39:52.823Z,10.72
2022-11-04T02:40:52.822Z,10.73
2022-11-04T02:41:52.795Z,10.72
2022-11-04T02:42:52.786Z,10.72
2022-11-04T02:43:52.779Z,10.65
2022-11-04T02:44:52.760Z,10.63
2022-11-04T02:45:52.762Z,10.68
2022-11-04T02:46:52.732Z,10.63
2022-11-04T02:47:52.736Z,10.63
2022-11-04T02:48:52.713Z,10.68
2022-11-04T02:49:52.707Z,10.57
2022-11-04T02:50:52.686Z,10.62
2022-11-04T02:51:52.706Z,10.62
2022-11-04T02:52:52.665Z,10.62
2022-11-04T02:53:52.672Z,10.52
2022-11-04T02:54:53.510Z,10.58
2022-11-04T02:55:52.634Z,10.55
2022-11-04T02:56:52.630Z,10.57
2022-11-04T02:57:53.542Z,10.57
2022-11-04T02:58:52.591Z,10.55
2022-11-04T02:59:52.608Z,10.55
2022-11-04T03:00:52.649Z,10.55
2022-11-04T03:01:52.825Z,10.55
2022-11-04T03:02:52.577Z,10.55
2022-11-04T03:03:52.567Z,10.46
2022-11-04T03:04:52.535Z,10.51
2022-11-04T03:05:52.521Z,10.49
2022-11-04T03:06:52.515Z,10.44
2022-11-04T03:07:52.496Z,10.43
2022-11-04T03:08:52.487Z,10.43
2022-11-04T03:09:52.491Z,10.44
2022-11-04T03:10:52.474Z,10.34
2022-11-04T03:11:52.452Z,10.31
2022-11-04T03:12:52.461Z,10.39
2022-11-04T03:13:52.442Z,10.36
2022-11-04T03:14:52.426Z,10.32
2022-11-04T03:15:52.422Z,10.34
2022-11-04T03:16:52.386Z,10.32
2022-11-04T03:17:52.382Z,10.36
2022-11-04T03:18:52.401Z,10.36
2022-11-04T03:19:52.386Z,10.29
2022-11-04T03:20:52.354Z,10.34
2022-11-04T03:21:52.336Z,10.31
2022-11-04T03:22:52.330Z,10.28
2022-11-04T03:23:52.332Z,10.31
2022-11-04T03:24:52.299Z,10.31
2022-11-04T03:25:52.301Z,10.36
2022-11-04T03:26:52.286Z,10.29
2022-11-04T03:27:52.281Z,10.29
2022-11-04T03:28:53.010Z,10.31
2022-11-04T03:29:52.277Z,10.18
2022-11-04T03:30:52.241Z,10.20
2022-11-04T03:31:53.059Z,10.16
2022-11-04T03:32:52.228Z,10.26
2022-11-04T03:33:52.209Z,10.24
2022-11-04T03:34:52.220Z,10.20
2022-11-04T03:35:52.183Z,10.24
2022-11-04T03:36:52.185Z,10.18
2022-11-04T03:37:52.164Z,10.11
2022-11-04T03:38:53.216Z,10.16
2022-11-04T03:39:52.184Z,10.20
2022-11-04T03:40:52.543Z,10.18
2022-11-04T03:41:52.119Z,10.17
2022-11-04T03:42:52.112Z,10.16
2022-11-04T03:43:52.096Z,10.17
2022-11-04T03:44:52.089Z,10.17
2022-11-04T03:45:52.092Z,10.22
2022-11-04T03:46:52.070Z,10.28
2022-11-04T03:47:52.076Z,10.20
2022-11-04T03:48:52.053Z,10.22
2022-11-04T03:49:52.027Z,10.10
2022-11-04T03:50:52.041Z,10.07
2022-11-04T03:51:52.025Z,10.17
2022-11-04T03:52:51.999Z,10.22
2022-11-04T03:53:51.985Z,10.22
2022-11-04T03:54:51.986Z,10.14
2022-11-04T03:55:51.963Z,10.17
2022-11-04T03:56:51.966Z,10.10
2022-11-04T03:57:51.963Z,10.09
2022-11-04T03:58:52.964Z,10.13
2022-11-04T03:59:51.917Z,10.02
2022-11-04T04:00:51.996Z,10.18
2022-11-04T04:01:51.978Z,10.18
2022-11-04T04:02:51.924Z,10.17
2022-11-04T04:03:51.892Z,10.16
2022-11-04T04:04:51.863Z,10.20
2022-11-04T04:05:51.880Z,10.18
2022-11-04T04:06:51.842Z,10.20
2022-11-04T04:07:51.835Z,10.18
2022-11-04T04:08:51.821Z,10.28
2022-11-04T04:09:52.525Z,10.25
2022-11-04T04:10:51.802Z,10.28
2022-11-04T04:11:51.835Z,10.29
2022-11-04T04:12:52.029Z,10.32
2022-11-04T04:13:51.764Z,10.35
2022-11-04T04:14:51.763Z,10.28
2022-11-04T04:15:51.760Z,10.38
2022-11-04T04:16:51.739Z,10.29
2022-11-04T04:17:51.729Z,10.28
2022-11-04T04:18:55.666Z,10.35
2022-11-04T04:19:52.724Z,10.34
2022-11-04T04:20:51.686Z,10.32
2022-11-04T04:21:52.514Z,10.29
2022-11-04T04:22:51.666Z,10.39
2022-11-04T04:23:51.674Z,10.29
2022-11-04T04:24:51.662Z,10.34
2022-11-04T04:25:51.690Z,10.34
2022-11-04T04:26:51.614Z,10.31
2022-11-04T04:27:51.613Z,10.31
2022-11-04T04:28:51.593Z,10.32
2022-11-04T04:29:51.593Z,10.34
2022-11-04T04:30:54.170Z,10.31
2022-11-04T04:31:52.679Z,10.35
2022-11-04T04:32:51.556Z,10.32
2022-11-04T04:33:51.547Z,10.26
2022-11-04T04:34:51.543Z,10.38
2022-11-04T04:35:51.540Z,10.29
2022-11-04T04:36:51.531Z,10.24
2022-11-04T04:37:51.493Z,10.29
2022-11-04T04:38:51.490Z,10.29
2022-11-04T04:39:51.474Z,10.28
2022-11-04T04:40:51.512Z,10.31
2022-11-04T04:41:51.456Z,10.31
2022-11-04T04:42:51.449Z,10.31
2022-11-04T04:43:51.426Z,10.18
2022-11-04T04:44:51.421Z,10.29
2022-11-04T04:45:51.419Z,10.22
2022-11-04T04:46:51.431Z,10.17
2022-11-04T04:47:51.382Z,10.24
2022-11-04T04:48:54.044Z,10.16
2022-11-04T04:49:51.361Z,10.24
2022-11-04T04:50:51.366Z,10.20
2022-11-04T04:51:51.378Z,10.06
2022-11-04T04:52:51.330Z,10.07
2022-11-04T04:53:51.317Z,10.14
2022-11-04T04:54:51.310Z,10.04
2022-11-04T04:55:51.352Z,10.10
2022-11-04T04:56:51.291Z,10.01
2022-11-04T04:57:51.287Z,9.93
2022-11-04T04:58:51.277Z,9.86
2022-11-04T04:59:51.256Z,9.93
2022-11-04T05:00:52.051Z,9.88
2022-11-04T05:01:51.351Z,9.88
2022-11-04T05:02:52.522Z,9.81
2022-11-04T05:03:51.207Z,9.83
2022-11-04T05:04:51.207Z,9.85
2022-11-04T05:05:52.685Z,9.81
2022-11-04T05:06:51.190Z,9.74
2022-11-04T05:07:51.558Z,9.71
2022-11-04T05:08:51.158Z,9.62
2022-11-04T05:09:51.166Z,9.70
2022-11-04T05:10:51.125Z,9.74
2022-11-04T05:11:51.147Z,9.74
2022-11-04T05:12:51.111Z,9.63
2022-11-04T05:13:51.099Z,9.70
2022-11-04T05:14:51.069Z,9.60
2022-11-04T05:15:51.081Z,9.63
2022-11-04T05:16:51.060Z,9.63
2022-11-04T05:17:51.075Z,9.62
2022-11-04T05:18:51.093Z,9.65
2022-11-04T05:19:54.015Z,9.60
2022-11-04T05:20:51.017Z,9.62
2022-11-04T05:21:51.052Z,9.62
2022-11-04T05:22:50.990Z,9.52
2022-11-04T05:23:51.033Z,9.53
2022-11-04T05:24:50.971Z,9.52
2022-11-04T05:25:53.518Z,9.59
2022-11-04T05:26:50.955Z,9.55
2022-11-04T05:27:50.954Z,9.52
2022-11-04T05:28:51.058Z,9.53
2022-11-04T05:29:50.957Z,9.52
2022-11-04T05:30:50.906Z,9.52
2022-11-04T05:31:50.936Z,9.55
2022-11-04T05:32:50.898Z,9.52
2022-11-04T05:33:50.894Z,9.55
2022-11-04T05:34:51.930Z,9.59
2022-11-04T05:35:50.852Z,9.50
2022-11-04T05:36:50.848Z,9.63
2022-11-04T05:37:50.832Z,9.67
2022-11-04T05:38:50.822Z,9.50
2022-11-04T05:39:53.557Z,9.59
2022-11-04T05:40:50.834Z,9.53
2022-11-04T05:41:50.781Z,9.55
2022-11-04T05:42:50.788Z,9.55
2022-11-04T05:43:50.787Z,9.60
2022-11-04T05:44:50.759Z,9.60
2022-11-04T05:45:50.741Z,9.49
2022-11-04T05:46:51.049Z,9.63
2022-11-04T05:47:50.738Z,9.62
2022-11-04T05:48:50.724Z,9.65
2022-11-04T05:49:50.710Z,9.65
2022-11-04T05:50:50.690Z,9.71
2022-11-04T05:51:51.046Z,9.68
2022-11-04T05:52:50.690Z,9.68
2022-11-04T05:53:50.703Z,9.60
2022-11-04T05:54:50.648Z,9.62
2022-11-04T05:55:50.648Z,9.70
2022-11-04T05:56:50.622Z,9.71
2022-11-04T05:57:50.610Z,9.62
2022-11-04T05:58:50.624Z,9.71
2022-11-04T05:59:50.587Z,9.70
2022-11-04T06:00:50.580Z,9.74
2022-11-04T06:01:50.690Z,9.80
2022-11-04T06:02:50.659Z,9.80
2022-11-04T06:03:50.547Z,9.80
2022-11-04T06:04:50.531Z,9.81
2022-11-04T06:05:50.524Z,9.85
2022-11-04T06:06:50.507Z,9.86
2022-11-04T06:07:50.504Z,9.88
2022-11-04T06:08:50.514Z,9.81
2022-11-04T06:09:50.485Z,9.86
2022-11-04T06:10:50.469Z,9.86
2022-11-04T06:11:50.478Z,9.86
2022-11-04T06:12:50.438Z,9.86
2022-11-04T06:13:50.441Z,9.86
2022-11-04T06:14:50.443Z,9.81
2022-11-04T06:15:50.442Z,9.86
2022-11-04T06:16:50.396Z,9.83
2022-11-04T06:17:51.029Z,9.85
2022-11-04T06:18:50.375Z,9.85
2022-11-04T06:19:50.371Z,9.81
2022-11-04T06:20:50.346Z,9.80
2022-11-04T06:21:50.363Z,9.78
2022-11-04T06:22:50.335Z,9.77
2022-11-04T06:23:53.027Z,9.78
2022-11-04T06:24:50.332Z,9.78
2022-11-04T06:25:53.024Z,9.78
2022-11-04T06:26:50.294Z,9.75
2022-11-04T06:27:50.293Z,9.78
2022-11-04T06:28:50.294Z,9.81
2022-11-04T06:29:50.261Z,9.92
2022-11-04T06:30:50.268Z,9.81
2022-11-04T06:31:50.263Z,9.85
2022-11-04T06:32:50.232Z,9.83
2022-11-04T06:33:50.249Z,9.83
2022-11-04T06:34:53.027Z,9.85
2022-11-04T06:35:53.023Z,9.91
2022-11-04T06:36:50.196Z,9.88
2022-11-04T06:37:53.027Z,9.80
2022-11-04T06:38:50.147Z,9.96
2022-11-04T06:39:50.145Z,9.83
2022-11-04T06:40:50.147Z,9.95
2022-11-04T06:41:51.709Z,9.99
2022-11-04T06:42:50.130Z,9.93
2022-11-04T06:43:50.115Z,10.06
2022-11-04T06:44:50.097Z,10.06
2022-11-04T06:45:50.079Z,9.96
2022-11-04T06:46:50.095Z,10.07
2022-11-04T06:47:50.076Z,10.10
2022-11-04T06:48:50.557Z,10.09
2022-11-04T06:49:50.035Z,10.02
2022-11-04T06:50:50.020Z,10.14
2022-11-04T06:51:50.021Z,10.17
2022-11-04T06:52:50.027Z,10.09
2022-11-04T06:53:49.996Z,10.13
2022-11-04T06:54:50.011Z,10.13
2022-11-04T06:55:50.536Z,10.11
2022-11-04T06:56:49.955Z,10.13
2022-11-04T06:57:50.532Z,10.10
2022-11-04T06:58:49.929Z,10.09
2022-11-04T06:59:49.957Z,10.16
2022-11-04T07:00:49.965Z,10.14
2022-11-04T07:01:50.736Z,10.17
2022-11-04T07:02:50.002Z,10.25
2022-11-04T07:03:49.875Z,10.22
2022-11-04T07:04:50.583Z,10.10
2022-11-04T07:05:50.052Z,10.18
2022-11-04T07:06:49.847Z,10.04
2022-11-04T07:07:49.838Z,10.18
2022-11-04T07:08:49.829Z,10.13
2022-11-04T07:09:49.835Z,10.17
2022-11-04T07:10:49.839Z,10.11
2022-11-04T07:11:50.514Z,10.20
2022-11-04T07:12:49.775Z,10.17
2022-11-04T07:13:49.806Z,10.20
2022-11-04T07:14:49.759Z,10.24
2022-11-04T07:15:49.770Z,10.20
2022-11-04T07:16:49.736Z,10.26
2022-11-04T07:17:49.729Z,10.28
2022-11-04T07:18:49.715Z,10.31
2022-11-04T07:19:49.722Z,10.29
2022-11-04T07:20:49.689Z,10.28
2022-11-04T07:21:52.526Z,10.20
2022-11-04T07:22:52.520Z,10.14
2022-11-04T07:23:49.680Z,10.25
2022-11-04T07:24:50.529Z,10.18
2022-11-04T07:25:56.537Z,10.22
2022-11-04T07:26:49.748Z,10.31
2022-11-04T07:27:49.630Z,10.22
2022-11-04T07:28:49.625Z,10.18
2022-11-04T07:29:49.596Z,10.31
2022-11-04T07:30:49.577Z,10.36
2022-11-04T07:31:49.588Z,10.35
2022-11-04T07:32:49.577Z,10.32
2022-11-04T07:33:49.550Z,10.29
2022-11-04T07:34:49.540Z,10.38
2022-11-04T07:35:52.040Z,10.34
2022-11-04T07:36:50.522Z,10.36
2022-11-04T07:37:50.021Z,10.34
2022-11-04T07:38:49.493Z,10.34
2022-11-04T07:39:49.475Z,10.38
2022-11-04T07:40:49.466Z,10.38
2022-11-04T07:41:49.551Z,10.42
2022-11-04T07:42:49.461Z,10.42
2022-11-04T07:43:49.447Z,10.51
2022-11-04T07:44:49.456Z,10.44
2022-11-04T07:45:50.022Z,10.42
2022-11-04T07:46:56.053Z,10.42
2022-11-04T07:47:49.389Z,10.44
2022-11-04T07:48:49.560Z,10.42
2022-11-04T07:49:49.630Z,10.36
2022-11-04T07:50:49.364Z,10.39
2022-11-04T07:51:49.555Z,10.39
2022-11-04T07:52:49.375Z,10.39
2022-11-04T07:53:52.019Z,10.43
2022-11-04T07:54:50.072Z,10.39
2022-11-04T07:55:49.303Z,10.43
2022-11-04T07:56:50.042Z,10.44
2022-11-04T07:57:49.286Z,10.42
2022-11-04T07:58:49.292Z,10.43
2022-11-04T07:59:49.277Z,10.46
2022-11-04T08:00:50.036Z,10.36
2022-11-04T08:01:49.471Z,10.47
2022-11-04T08:02:50.182Z,10.46
2022-11-04T08:03:49.215Z,10.51
2022-11-04T08:04:49.232Z,10.52
2022-11-04T08:05:52.025Z,10.55
2022-11-04T08:06:50.045Z,10.58
2022-11-04T08:07:49.152Z,10.58
2022-11-04T08:08:49.277Z,10.63
2022-11-04T08:09:49.160Z,10.65
2022-11-04T08:10:56.033Z,10.63
2022-11-04T08:11:49.127Z,10.63
2022-11-04T08:12:50.027Z,10.63
2022-11-04T08:13:50.036Z,10.66
2022-11-04T08:14:50.057Z,10.73
2022-11-04T08:15:49.084Z,10.69
2022-11-04T08:16:50.028Z,10.75
2022-11-04T08:17:49.061Z,10.70
2022-11-04T08:18:49.063Z,10.76
2022-11-04T08:19:49.074Z,10.66
2022-11-04T08:20:49.041Z,10.72
2022-11-04T08:21:51.075Z,10.68
2022-11-04T08:22:49.007Z,10.63
2022-11-04T08:24:03.547Z,10.73
2022-11-04T08:24:48.978Z,10.70
2022-11-04T08:25:48.995Z,10.75
2022-11-04T08:26:48.998Z,10.70
2022-11-04T08:27:48.948Z,10.81
2022-11-04T08:28:48.934Z,10.81
2022-11-04T08:29:55.534Z,10.80
2022-11-04T08:30:48.911Z,10.84
2022-11-04T08:31:48.916Z,10.93
2022-11-04T08:32:48.895Z,11.01
2022-11-04T08:33:51.569Z,11.01
2022-11-04T08:34:48.869Z,10.94
2022-11-04T08:35:48.863Z,11.06
2022-11-04T08:36:48.836Z,10.94
2022-11-04T08:37:48.862Z,11.05
2022-11-04T08:38:48.822Z,10.98
2022-11-04T08:39:48.810Z,11.01
2022-11-04T08:40:48.803Z,10.94
2022-11-04T08:41:48.813Z,10.94
2022-11-04T08:42:48.770Z,10.88
2022-11-04T08:43:48.766Z,10.78
2022-11-04T08:44:48.755Z,10.91
2022-11-04T08:45:48.769Z,10.87
2022-11-04T08:46:48.732Z,10.75
2022-11-04T08:47:48.726Z,10.90
2022-11-04T08:48:49.065Z,10.86
2022-11-04T08:49:48.716Z,10.88
2022-11-04T08:50:48.688Z,10.93
2022-11-04T08:51:48.686Z,11.02
2022-11-04T08:52:48.669Z,10.99
2022-11-04T08:53:49.529Z,10.99
2022-11-04T08:54:52.231Z,10.98
2022-11-04T08:55:49.623Z,10.87
2022-11-04T08:56:49.537Z,10.93
2022-11-04T08:57:48.613Z,10.94
2022-11-04T08:58:48.612Z,10.86
2022-11-04T08:59:50.555Z,10.94
2022-11-04T09:00:48.585Z,10.99
2022-11-04T09:01:49.549Z,11.01
2022-11-04T09:02:48.561Z,11.05
2022-11-04T09:03:48.608Z,11.11
2022-11-04T09:04:48.559Z,11.06
2022-11-04T09:05:49.183Z,11.09
2022-11-04T09:06:48.514Z,11.12
2022-11-04T09:07:51.056Z,11.11
2022-11-04T09:08:48.487Z,11.12
2022-11-04T09:09:48.503Z,11.08
2022-11-04T09:10:49.034Z,11.12
2022-11-04T09:11:48.465Z,11.05
2022-11-04T09:12:49.035Z,10.99
2022-11-04T09:13:48.432Z,10.98
2022-11-04T09:14:48.584Z,11.06
2022-11-04T09:15:49.053Z,11.12
2022-11-04T09:16:49.036Z,11.05
2022-11-04T09:17:48.390Z,11.17
2022-11-04T09:18:48.506Z,11.27
2022-11-04T09:19:48.363Z,11.16
2022-11-04T09:20:49.039Z,11.24
2022-11-04T09:21:49.132Z,11.20
2022-11-04T09:22:48.336Z,11.24
2022-11-04T09:23:48.318Z,11.30
2022-11-04T09:24:48.337Z,11.30
2022-11-04T09:25:48.295Z,11.36
2022-11-04T09:26:48.320Z,11.39
2022-11-04T09:27:49.030Z,11.44
2022-11-04T09:28:48.273Z,11.51
2022-11-04T09:29:48.241Z,11.51
2022-11-04T09:30:48.256Z,11.41
2022-11-04T09:31:49.529Z,11.46
2022-11-04T09:32:52.709Z,11.53
2022-11-04T09:33:48.206Z,11.53
2022-11-04T09:34:48.218Z,11.62
2022-11-04T09:35:51.041Z,11.64
2022-11-04T09:36:48.217Z,11.53
2022-11-04T09:37:49.217Z,11.59
2022-11-04T09:38:48.136Z,11.62
2022-11-04T09:39:52.804Z,11.63
2022-11-04T09:40:56.033Z,11.63
2022-11-04T09:41:48.122Z,11.70
2022-11-04T09:42:51.029Z,11.79
2022-11-04T09:43:48.125Z,11.79
2022-11-04T09:45:15.073Z,11.74
2022-11-04T09:45:49.083Z,11.72
2022-11-04T09:46:48.077Z,11.74
2022-11-04T09:47:48.067Z,11.70
2022-11-04T09:48:51.039Z,11.77
2022-11-04T09:49:48.026Z,11.84
2022-11-04T09:50:50.536Z,11.77
2022-11-04T09:51:54.516Z,11.87
2022-11-04T09:52:49.059Z,11.81
2022-11-04T09:53:50.675Z,11.88
2022-11-04T09:54:47.998Z,11.97
2022-11-04T09:55:47.971Z,11.82
2022-11-04T09:56:47.954Z,11.90
2022-11-04T09:57:48.006Z,11.84
2022-11-04T09:58:48.061Z,11.88
2022-11-04T09:59:48.540Z,12.03
2022-11-04T10:00:48.568Z,12.05
2022-11-04T10:02:58.720Z,12.08
2022-11-04T10:03:58.722Z,12.18
2022-11-04T10:04:58.743Z,12.29
2022-11-04T10:06:01.389Z,12.33
2022-11-04T10:07:01.401Z,12.49
2022-11-04T10:07:58.643Z,12.49
2022-11-04T10:08:58.813Z,12.63
2022-11-04T10:09:58.627Z,12.49
2022-11-04T10:10:58.629Z,12.52
2022-11-04T10:11:59.384Z,12.51
2022-11-04T10:12:59.388Z,12.63
2022-11-04T10:13:58.603Z,12.74
2022-11-04T10:14:58.573Z,12.79
2022-11-04T10:16:01.389Z,12.56
2022-11-04T10:16:58.549Z,12.49
2022-11-04T10:17:59.390Z,12.51
2022-11-04T10:18:59.387Z,12.46
2022-11-04T10:19:58.525Z,12.36
2022-11-04T10:20:58.528Z,12.38
2022-11-04T10:21:58.519Z,12.30
2022-11-04T10:22:59.382Z,12.22
2022-11-04T10:23:58.494Z,12.22
2022-11-04T10:24:59.484Z,12.08
2022-11-04T10:25:58.452Z,12.08
2022-11-04T10:27:00.832Z,12.12
2022-11-04T10:27:58.435Z,11.96
2022-11-04T10:28:58.405Z,12.01
2022-11-04T10:29:58.936Z,12.03
2022-11-04T10:30:58.413Z,12.05
2022-11-04T10:31:58.405Z,12.12
2022-11-04T10:32:58.375Z,12.08
2022-11-04T10:33:58.371Z,12.07
2022-11-04T10:34:58.349Z,12.11
2022-11-04T10:35:58.370Z,12.08
2022-11-04T10:36:58.331Z,12.05
2022-11-04T10:37:58.308Z,12.18
2022-11-04T10:38:58.325Z,12.07
2022-11-04T10:39:58.299Z,12.19
2022-11-04T10:41:01.745Z,12.22
2022-11-04T10:41:59.280Z,12.25
2022-11-04T10:42:58.259Z,12.30
2022-11-04T10:43:58.260Z,12.34
2022-11-04T10:44:58.241Z,12.52
2022-11-04T10:45:58.228Z,12.52
2022-11-04T10:46:58.245Z,12.49
2022-11-04T10:47:58.208Z,12.55
2022-11-04T10:48:58.201Z,12.51
2022-11-04T10:50:27.303Z,12.43
2022-11-04T10:50:59.424Z,12.48
2022-11-04T10:51:58.180Z,12.49
2022-11-04T10:52:58.173Z,12.48
2022-11-04T10:53:58.213Z,12.62
2022-11-04T10:54:58.127Z,12.58
2022-11-04T10:55:58.142Z,12.76
2022-11-04T10:56:58.161Z,12.77
2022-11-04T10:57:58.885Z,12.81
2022-11-04T10:58:59.385Z,12.89
2022-11-04T10:59:58.080Z,13.03
2022-11-04T11:00:58.130Z,12.95
2022-11-04T11:01:58.256Z,13.04
2022-11-04T11:02:58.061Z,13.06
2022-11-04T11:03:58.038Z,12.95
2022-11-04T11:04:58.032Z,12.96
2022-11-04T11:06:00.888Z,12.84
2022-11-04T11:06:58.027Z,12.76
2022-11-04T11:07:57.982Z,12.73
2022-11-04T11:08:58.895Z,12.56
2022-11-04T11:09:57.980Z,12.48
2022-11-04T11:10:57.962Z,12.44
2022-11-04T11:11:57.940Z,12.40
2022-11-04T11:12:57.969Z,12.36
2022-11-04T11:13:57.915Z,12.40
2022-11-04T11:14:57.913Z,12.33
2022-11-04T11:15:57.895Z,12.25
2022-11-04T11:16:57.898Z,12.12
2022-11-04T11:17:57.903Z,12.08
2022-11-04T11:18:57.873Z,12.16
2022-11-04T11:19:57.854Z,12.19
2022-11-04T11:20:57.848Z,12.22
2022-11-04T11:21:57.826Z,12.19
2022-11-04T11:23:04.482Z,12.23
2022-11-04T11:23:58.830Z,12.22
2022-11-04T11:24:57.806Z,12.26
2022-11-04T11:25:57.796Z,12.29
2022-11-04T11:26:57.786Z,12.37
2022-11-04T11:27:57.773Z,12.41
2022-11-04T11:28:59.448Z,12.49
2022-11-04T11:29:57.742Z,12.49
2022-11-04T11:30:57.728Z,12.48
2022-11-04T11:31:57.727Z,12.73
2022-11-04T11:32:57.705Z,12.96
2022-11-04T11:33:57.727Z,13.03
2022-11-04T11:34:57.720Z,13.28
2022-11-04T11:35:57.727Z,13.24
2022-11-04T11:36:57.696Z,13.27
2022-11-04T11:37:57.672Z,13.13
2022-11-04T11:38:57.645Z,13.10
2022-11-04T11:39:57.913Z,13.29
2022-11-04T11:41:23.491Z,13.24
2022-11-04T11:41:58.627Z,13.28
2022-11-04T11:42:57.608Z,13.36
2022-11-04T11:43:57.587Z,13.29
2022-11-04T11:44:57.604Z,13.27
2022-11-04T11:45:57.601Z,13.32
2022-11-04T11:46:57.572Z,13.28
2022-11-04T11:47:57.554Z,13.36
2022-11-04T11:48:57.534Z,13.21
2022-11-04T11:49:57.542Z,13.06
2022-11-04T11:50:57.539Z,12.98
2022-11-04T11:51:57.521Z,12.96
2022-11-04T11:52:57.487Z,12.91
2022-11-04T11:53:57.500Z,12.76
2022-11-04T11:54:57.472Z,12.70
2022-11-04T11:55:57.466Z,12.61
2022-11-04T11:57:14.706Z,12.46
2022-11-04T12:01:05.579Z,12.51
2022-11-04T12:01:58.552Z,12.52
2022-11-04T12:02:57.885Z,12.49
2022-11-04T12:09:58.310Z,12.73
2022-11-04T12:10:57.299Z,12.80
2022-11-04T12:11:59.898Z,13.03
2022-11-04T12:12:57.421Z,12.99
2022-11-04T12:13:57.276Z,13.04
2022-11-04T12:14:57.907Z,13.14
2022-11-04T12:15:57.274Z,13.09
2022-11-04T12:16:57.354Z,13.01
2022-11-04T12:17:57.235Z,13.04
2022-11-04T12:18:59.890Z,12.89
2022-11-04T12:19:57.276Z,12.85
2022-11-04T12:20:57.190Z,12.88
2022-11-04T12:21:57.181Z,12.91
2022-11-04T12:22:57.892Z,12.96
2022-11-04T12:23:57.154Z,12.95
2022-11-04T12:24:57.151Z,13.07
2022-11-04T12:25:57.154Z,13.31
2022-11-04T12:26:57.146Z,13.32
2022-11-04T12:27:57.111Z,13.39
2022-11-04T12:28:57.111Z,13.57
2022-11-04T12:29:57.095Z,13.62
2022-11-04T12:30:57.892Z,13.62
2022-11-04T12:31:57.416Z,13.54
2022-11-04T12:32:57.087Z,13.51
2022-11-04T12:33:57.908Z,13.57
2022-11-04T12:34:57.051Z,13.75
2022-11-04T12:35:58.916Z,13.79
2022-11-04T12:36:57.039Z,13.87
2022-11-04T12:37:57.031Z,13.86
2022-11-04T12:38:58.022Z,13.76
2022-11-04T12:39:56.988Z,13.76
2022-11-04T12:41:27.660Z,13.63
2022-11-04T12:42:57.965Z,13.62
2022-11-04T12:43:56.961Z,13.83
2022-11-04T12:44:59.904Z,13.86
2022-11-04T12:45:56.911Z,13.80
2022-11-04T12:46:56.906Z,13.80
2022-11-04T12:47:56.906Z,13.72
2022-11-04T12:48:59.050Z,13.54
2022-11-04T12:49:56.914Z,13.38
2022-11-04T12:50:56.862Z,13.27
2022-11-04T12:51:56.845Z,13.29
2022-11-04T12:52:56.869Z,13.21
2022-11-04T12:53:56.822Z,13.07
2022-11-04T12:54:56.825Z,12.96
2022-11-04T12:55:56.809Z,13.04
2022-11-04T12:56:56.812Z,12.96
2022-11-04T12:57:57.397Z,12.92
2022-11-04T12:58:56.794Z,12.94
2022-11-04T12:59:56.755Z,12.95
2022-11-04T13:00:59.630Z,13.03
2022-11-04T13:01:57.510Z,12.99
2022-11-04T13:02:57.398Z,12.92
2022-11-04T13:03:56.929Z,12.85
2022-11-04T13:04:56.737Z,12.81
2022-11-04T13:05:56.689Z,12.87
2022-11-04T13:06:56.682Z,12.84
2022-11-04T13:07:56.671Z,13.06
2022-11-04T13:08:56.658Z,13.24